sensor_id;sensor_type;location;lat;lon;timestamp;P1;durP1;ratioP1;P2;durP2;ratioP2
62556;SDS011;48612;50.742;-1.226;2022-08-14T00:00:49;10.10;;;2.90;;
62556;SDS011;48612;50.742;-1.226;2022-08-14T00:03:22;7.47;;;2.75;;
62556;SDS011;48612;50.742;-1.226;2022-08-14T00:06:12;7.50;;;3.05;;
62556;SDS011;48612;50.742;-1.226;2022-08-14T00:08:38;11.32;;;3.22;;
62556;SDS011;48612;50.742;-1.226;2022-08-14T00:11:04;6.97;;;2.75;;
62556;SDS011;48612;50.742;-1.226;2022-08-14T00:13:31;7.22;;;3.10;;
62556;SDS011;48612;50.742;-1.226;2022-08-14T00:15:57;5.68;;;2.90;;
62556;SDS011;48612;50.742;-1.226;2022-08-14T00:18:25;10.02;;;3.25;;
62556;SDS011;48612;50.742;-1.226;2022-08-14T00:20:55;8.25;;;2.80;;
62556;SDS011;48612;50.742;-1.226;2022-08-14T00:23:21;7.78;;;3.08;;
62556;SDS011;48612;50.742;-1.226;2022-08-14T00:25:49;8.13;;;2.70;;
62556;SDS011;48612;50.742;-1.226;2022-08-14T00:28:16;4.07;;;2.92;;
62556;SDS011;48612;50.742;-1.226;2022-08-14T00:30:46;4.70;;;2.90;;
62556;SDS011;48612;50.742;-1.226;2022-08-14T00:33:14;9.73;;;3.05;;
62556;SDS011;48612;50.742;-1.226;2022-08-14T00:35:40;6.10;;;2.83;;
62556;SDS011;48612;50.742;-1.226;2022-08-14T00:38:06;5.25;;;3.13;;
62556;SDS011;48612;50.742;-1.226;2022-08-14T00:40:32;5.95;;;3.10;;
62556;SDS011;48612;50.742;-1.226;2022-08-14T00:42:58;7.30;;;3.10;;
62556;SDS011;48612;50.742;-1.226;2022-08-14T00:45:24;5.10;;;3.03;;
62556;SDS011;48612;50.742;-1.226;2022-08-14T00:47:49;7.10;;;2.55;;
62556;SDS011;48612;50.742;-1.226;2022-08-14T00:50:16;3.75;;;2.50;;
62556;SDS011;48612;50.742;-1.226;2022-08-14T00:52:44;4.45;;;2.60;;
62556;SDS011;48612;50.742;-1.226;2022-08-14T00:55:12;4.22;;;2.80;;
62556;SDS011;48612;50.742;-1.226;2022-08-14T00:57:38;6.03;;;2.92;;
62556;SDS011;48612;50.742;-1.226;2022-08-14T01:00:30;3.40;;;2.88;;
62556;SDS011;48612;50.742;-1.226;2022-08-14T01:02:56;4.57;;;2.80;;
62556;SDS011;48612;50.742;-1.226;2022-08-14T01:05:26;4.53;;;2.85;;
62556;SDS011;48612;50.742;-1.226;2022-08-14T01:07:53;5.57;;;3.10;;
62556;SDS011;48612;50.742;-1.226;2022-08-14T01:10:23;4.20;;;2.78;;
62556;SDS011;48612;50.742;-1.226;2022-08-14T01:13:14;5.05;;;2.67;;
62556;SDS011;48612;50.742;-1.226;2022-08-14T01:15:46;3.83;;;2.70;;
62556;SDS011;48612;50.742;-1.226;2022-08-14T01:18:17;7.25;;;2.60;;
62556;SDS011;48612;50.742;-1.226;2022-08-14T01:21:03;4.93;;;2.50;;
62556;SDS011;48612;50.742;-1.226;2022-08-14T01:23:38;6.68;;;2.70;;
62556;SDS011;48612;50.742;-1.226;2022-08-14T01:26:07;7.82;;;2.88;;
62556;SDS011;48612;50.742;-1.226;2022-08-14T01:28:37;6.43;;;3.13;;
62556;SDS011;48612;50.742;-1.226;2022-08-14T01:31:16;5.03;;;2.70;;
62556;SDS011;48612;50.742;-1.226;2022-08-14T01:33:44;6.18;;;2.70;;
62556;SDS011;48612;50.742;-1.226;2022-08-14T01:36:13;5.80;;;3.05;;
62556;SDS011;48612;50.742;-1.226;2022-08-14T01:38:41;10.88;;;3.13;;
62556;SDS011;48612;50.742;-1.226;2022-08-14T01:41:14;4.18;;;2.60;;
62556;SDS011;48612;50.742;-1.226;2022-08-14T01:43:58;4.97;;;2.85;;
62556;SDS011;48612;50.742;-1.226;2022-08-14T01:46:27;3.40;;;2.42;;
62556;SDS011;48612;50.742;-1.226;2022-08-14T01:48:55;3.85;;;2.72;;
62556;SDS011;48612;50.742;-1.226;2022-08-14T01:51:22;5.75;;;3.25;;
62556;SDS011;48612;50.742;-1.226;2022-08-14T01:53:52;3.75;;;2.78;;
62556;SDS011;48612;50.742;-1.226;2022-08-14T01:56:21;6.03;;;2.70;;
62556;SDS011;48612;50.742;-1.226;2022-08-14T01:58:54;8.82;;;3.08;;
62556;SDS011;48612;50.742;-1.226;2022-08-14T02:01:20;7.25;;;3.28;;
62556;SDS011;48612;50.742;-1.226;2022-08-14T02:03:47;5.13;;;3.25;;
62556;SDS011;48612;50.742;-1.226;2022-08-14T02:06:13;4.00;;;2.80;;
62556;SDS011;48612;50.742;-1.226;2022-08-14T02:08:39;6.53;;;2.90;;
62556;SDS011;48612;50.742;-1.226;2022-08-14T02:11:06;6.22;;;3.00;;
62556;SDS011;48612;50.742;-1.226;2022-08-14T02:13:55;5.60;;;3.22;;
62556;SDS011;48612;50.742;-1.226;2022-08-14T02:16:37;5.30;;;2.83;;
62556;SDS011;48612;50.742;-1.226;2022-08-14T02:19:24;6.05;;;3.33;;
62556;SDS011;48612;50.742;-1.226;2022-08-14T02:21:55;11.73;;;3.47;;
62556;SDS011;48612;50.742;-1.226;2022-08-14T02:24:23;5.45;;;3.10;;
62556;SDS011;48612;50.742;-1.226;2022-08-14T02:26:51;5.30;;;3.30;;
62556;SDS011;48612;50.742;-1.226;2022-08-14T02:29:21;3.70;;;2.90;;
62556;SDS011;48612;50.742;-1.226;2022-08-14T02:31:49;5.00;;;3.63;;
62556;SDS011;48612;50.742;-1.226;2022-08-14T02:34:21;4.60;;;3.22;;
62556;SDS011;48612;50.742;-1.226;2022-08-14T02:36:49;5.40;;;2.85;;
62556;SDS011;48612;50.742;-1.226;2022-08-14T02:39:17;5.18;;;2.90;;
62556;SDS011;48612;50.742;-1.226;2022-08-14T02:41:43;12.23;;;2.95;;
62556;SDS011;48612;50.742;-1.226;2022-08-14T02:44:16;4.60;;;2.85;;
62556;SDS011;48612;50.742;-1.226;2022-08-14T02:46:47;8.02;;;3.10;;
62556;SDS011;48612;50.742;-1.226;2022-08-14T02:49:14;3.65;;;2.80;;
62556;SDS011;48612;50.742;-1.226;2022-08-14T02:51:40;7.30;;;3.53;;
62556;SDS011;48612;50.742;-1.226;2022-08-14T02:54:07;6.05;;;3.30;;
62556;SDS011;48612;50.742;-1.226;2022-08-14T02:56:34;4.25;;;2.83;;
62556;SDS011;48612;50.742;-1.226;2022-08-14T02:59:04;5.25;;;3.10;;
62556;SDS011;48612;50.742;-1.226;2022-08-14T03:01:32;6.47;;;2.90;;
62556;SDS011;48612;50.742;-1.226;2022-08-14T03:03:59;4.63;;;3.00;;
62556;SDS011;48612;50.742;-1.226;2022-08-14T03:06:25;3.90;;;2.70;;
62556;SDS011;48612;50.742;-1.226;2022-08-14T03:08:53;9.52;;;3.10;;
62556;SDS011;48612;50.742;-1.226;2022-08-14T03:11:19;4.82;;;3.20;;
62556;SDS011;48612;50.742;-1.226;2022-08-14T03:13:46;5.65;;;2.95;;
62556;SDS011;48612;50.742;-1.226;2022-08-14T03:16:20;7.70;;;3.30;;
62556;SDS011;48612;50.742;-1.226;2022-08-14T03:18:50;3.20;;;2.55;;
62556;SDS011;48612;50.742;-1.226;2022-08-14T03:21:19;4.85;;;2.60;;
62556;SDS011;48612;50.742;-1.226;2022-08-14T03:23:51;5.57;;;2.60;;
62556;SDS011;48612;50.742;-1.226;2022-08-14T03:26:39;4.50;;;3.00;;
62556;SDS011;48612;50.742;-1.226;2022-08-14T03:29:06;10.73;;;3.00;;
62556;SDS011;48612;50.742;-1.226;2022-08-14T03:31:33;5.72;;;3.10;;
62556;SDS011;48612;50.742;-1.226;2022-08-14T03:34:05;5.00;;;3.03;;
62556;SDS011;48612;50.742;-1.226;2022-08-14T03:36:35;5.07;;;3.17;;
62556;SDS011;48612;50.742;-1.226;2022-08-14T03:39:03;7.25;;;2.97;;
62556;SDS011;48612;50.742;-1.226;2022-08-14T03:41:36;4.45;;;3.00;;
62556;SDS011;48612;50.742;-1.226;2022-08-14T03:44:03;5.07;;;2.90;;
62556;SDS011;48612;50.742;-1.226;2022-08-14T03:46:31;8.60;;;3.30;;
62556;SDS011;48612;50.742;-1.226;2022-08-14T03:48:58;7.20;;;3.30;;
62556;SDS011;48612;50.742;-1.226;2022-08-14T03:51:28;4.28;;;3.00;;
62556;SDS011;48612;50.742;-1.226;2022-08-14T03:53:55;6.82;;;3.00;;
62556;SDS011;48612;50.742;-1.226;2022-08-14T03:56:24;8.88;;;3.15;;
62556;SDS011;48612;50.742;-1.226;2022-08-14T03:58:54;5.78;;;3.03;;
62556;SDS011;48612;50.742;-1.226;2022-08-14T04:01:23;5.00;;;3.20;;
62556;SDS011;48612;50.742;-1.226;2022-08-14T04:03:51;4.97;;;3.00;;
62556;SDS011;48612;50.742;-1.226;2022-08-14T04:06:19;6.55;;;3.30;;
62556;SDS011;48612;50.742;-1.226;2022-08-14T04:08:49;5.55;;;3.05;;
62556;SDS011;48612;50.742;-1.226;2022-08-14T04:11:16;5.07;;;3.33;;
62556;SDS011;48612;50.742;-1.226;2022-08-14T04:13:43;6.82;;;3.13;;
62556;SDS011;48612;50.742;-1.226;2022-08-14T04:16:13;5.82;;;3.17;;
62556;SDS011;48612;50.742;-1.226;2022-08-14T04:18:56;5.57;;;3.00;;
62556;SDS011;48612;50.742;-1.226;2022-08-14T04:21:54;7.18;;;3.20;;
62556;SDS011;48612;50.742;-1.226;2022-08-14T04:24:21;8.52;;;3.28;;
62556;SDS011;48612;50.742;-1.226;2022-08-14T04:26:47;13.30;;;3.60;;
62556;SDS011;48612;50.742;-1.226;2022-08-14T04:29:14;9.57;;;3.15;;
62556;SDS011;48612;50.742;-1.226;2022-08-14T04:31:40;8.07;;;3.45;;
62556;SDS011;48612;50.742;-1.226;2022-08-14T04:34:07;5.47;;;3.20;;
62556;SDS011;48612;50.742;-1.226;2022-08-14T04:36:32;12.48;;;3.42;;
62556;SDS011;48612;50.742;-1.226;2022-08-14T04:39:18;4.10;;;3.10;;
62556;SDS011;48612;50.742;-1.226;2022-08-14T04:42:02;5.03;;;3.03;;
62556;SDS011;48612;50.742;-1.226;2022-08-14T04:44:46;6.45;;;3.10;;
62556;SDS011;48612;50.742;-1.226;2022-08-14T04:47:13;12.25;;;3.50;;
62556;SDS011;48612;50.742;-1.226;2022-08-14T04:50:14;8.20;;;3.38;;
62556;SDS011;48612;50.742;-1.226;2022-08-14T04:52:40;10.45;;;3.10;;
62556;SDS011;48612;50.742;-1.226;2022-08-14T04:55:06;14.40;;;3.33;;
62556;SDS011;48612;50.742;-1.226;2022-08-14T04:57:34;4.82;;;3.25;;
62556;SDS011;48612;50.742;-1.226;2022-08-14T05:00:04;5.90;;;3.30;;
62556;SDS011;48612;50.742;-1.226;2022-08-14T05:02:41;7.40;;;3.60;;
62556;SDS011;48612;50.742;-1.226;2022-08-14T05:05:11;4.20;;;3.35;;
62556;SDS011;48612;50.742;-1.226;2022-08-14T05:07:41;4.57;;;3.22;;
62556;SDS011;48612;50.742;-1.226;2022-08-14T05:10:06;5.68;;;3.47;;
62556;SDS011;48612;50.742;-1.226;2022-08-14T05:12:33;7.35;;;3.70;;
62556;SDS011;48612;50.742;-1.226;2022-08-14T05:14:59;4.93;;;3.33;;
62556;SDS011;48612;50.742;-1.226;2022-08-14T05:17:27;8.48;;;3.17;;
62556;SDS011;48612;50.742;-1.226;2022-08-14T05:19:56;6.57;;;3.42;;
62556;SDS011;48612;50.742;-1.226;2022-08-14T05:22:22;4.32;;;3.33;;
62556;SDS011;48612;50.742;-1.226;2022-08-14T05:24:48;5.07;;;3.05;;
62556;SDS011;48612;50.742;-1.226;2022-08-14T05:27:14;8.20;;;3.00;;
62556;SDS011;48612;50.742;-1.226;2022-08-14T05:29:47;9.35;;;3.20;;
62556;SDS011;48612;50.742;-1.226;2022-08-14T05:32:17;9.35;;;3.15;;
62556;SDS011;48612;50.742;-1.226;2022-08-14T05:34:43;6.55;;;3.50;;
62556;SDS011;48612;50.742;-1.226;2022-08-14T05:37:08;5.40;;;3.00;;
62556;SDS011;48612;50.742;-1.226;2022-08-14T05:39:34;6.88;;;3.13;;
62556;SDS011;48612;50.742;-1.226;2022-08-14T05:42:00;4.28;;;3.08;;
62556;SDS011;48612;50.742;-1.226;2022-08-14T05:44:26;7.00;;;3.40;;
62556;SDS011;48612;50.742;-1.226;2022-08-14T05:46:52;11.23;;;3.67;;
62556;SDS011;48612;50.742;-1.226;2022-08-14T05:49:18;4.82;;;3.38;;
62556;SDS011;48612;50.742;-1.226;2022-08-14T05:51:45;5.00;;;3.13;;
62556;SDS011;48612;50.742;-1.226;2022-08-14T05:54:11;7.68;;;3.28;;
62556;SDS011;48612;50.742;-1.226;2022-08-14T05:56:37;5.15;;;2.67;;
62556;SDS011;48612;50.742;-1.226;2022-08-14T05:59:03;10.02;;;3.38;;
62556;SDS011;48612;50.742;-1.226;2022-08-14T06:01:29;3.97;;;3.00;;
62556;SDS011;48612;50.742;-1.226;2022-08-14T06:03:58;6.25;;;3.42;;
62556;SDS011;48612;50.742;-1.226;2022-08-14T06:06:45;7.35;;;3.28;;
62556;SDS011;48612;50.742;-1.226;2022-08-14T06:09:10;6.53;;;3.08;;
62556;SDS011;48612;50.742;-1.226;2022-08-14T06:11:37;8.05;;;3.35;;
62556;SDS011;48612;50.742;-1.226;2022-08-14T06:14:03;9.10;;;3.40;;
62556;SDS011;48612;50.742;-1.226;2022-08-14T06:16:29;3.60;;;2.85;;
62556;SDS011;48612;50.742;-1.226;2022-08-14T06:18:55;7.97;;;3.05;;
62556;SDS011;48612;50.742;-1.226;2022-08-14T06:21:22;5.68;;;3.00;;
62556;SDS011;48612;50.742;-1.226;2022-08-14T06:23:49;5.30;;;3.00;;
62556;SDS011;48612;50.742;-1.226;2022-08-14T06:26:14;4.05;;;2.78;;
62556;SDS011;48612;50.742;-1.226;2022-08-14T06:28:40;9.68;;;2.83;;
62556;SDS011;48612;50.742;-1.226;2022-08-14T06:31:08;3.80;;;2.78;;
62556;SDS011;48612;50.742;-1.226;2022-08-14T06:33:38;5.95;;;3.00;;
62556;SDS011;48612;50.742;-1.226;2022-08-14T06:36:06;5.00;;;2.80;;
62556;SDS011;48612;50.742;-1.226;2022-08-14T06:38:33;4.57;;;2.67;;
62556;SDS011;48612;50.742;-1.226;2022-08-14T06:41:02;3.08;;;2.50;;
62556;SDS011;48612;50.742;-1.226;2022-08-14T06:43:31;3.40;;;2.80;;
62556;SDS011;48612;50.742;-1.226;2022-08-14T06:45:56;4.65;;;2.72;;
62556;SDS011;48612;50.742;-1.226;2022-08-14T06:48:23;4.78;;;2.85;;
62556;SDS011;48612;50.742;-1.226;2022-08-14T06:50:50;12.35;;;3.13;;
62556;SDS011;48612;50.742;-1.226;2022-08-14T06:53:21;11.45;;;2.97;;
62556;SDS011;48612;50.742;-1.226;2022-08-14T06:55:50;5.47;;;2.50;;
62556;SDS011;48612;50.742;-1.226;2022-08-14T06:58:21;3.80;;;2.80;;
62556;SDS011;48612;50.742;-1.226;2022-08-14T07:00:47;4.72;;;2.60;;
62556;SDS011;48612;50.742;-1.226;2022-08-14T07:06:19;4.93;;;2.40;;
62556;SDS011;48612;50.742;-1.226;2022-08-14T07:08:46;8.65;;;2.90;;
62556;SDS011;48612;50.742;-1.226;2022-08-14T07:11:12;5.70;;;2.40;;
62556;SDS011;48612;50.742;-1.226;2022-08-14T07:13:38;4.90;;;2.97;;
62556;SDS011;48612;50.742;-1.226;2022-08-14T07:16:04;5.72;;;2.50;;
62556;SDS011;48612;50.742;-1.226;2022-08-14T07:18:32;5.90;;;2.75;;
62556;SDS011;48612;50.742;-1.226;2022-08-14T07:21:00;6.40;;;3.03;;
62556;SDS011;48612;50.742;-1.226;2022-08-14T07:23:27;2.92;;;2.58;;
62556;SDS011;48612;50.742;-1.226;2022-08-14T07:25:54;6.40;;;2.97;;
62556;SDS011;48612;50.742;-1.226;2022-08-14T07:28:26;4.75;;;2.45;;
62556;SDS011;48612;50.742;-1.226;2022-08-14T07:30:54;4.97;;;2.80;;
62556;SDS011;48612;50.742;-1.226;2022-08-14T07:33:25;5.95;;;2.70;;
62556;SDS011;48612;50.742;-1.226;2022-08-14T07:35:53;3.67;;;2.53;;
62556;SDS011;48612;50.742;-1.226;2022-08-14T07:38:22;9.38;;;2.90;;
62556;SDS011;48612;50.742;-1.226;2022-08-14T07:40:48;2.90;;;2.60;;
62556;SDS011;48612;50.742;-1.226;2022-08-14T07:43:16;4.45;;;2.80;;
62556;SDS011;48612;50.742;-1.226;2022-08-14T07:45:46;4.30;;;2.65;;
62556;SDS011;48612;50.742;-1.226;2022-08-14T07:48:14;6.38;;;2.95;;
62556;SDS011;48612;50.742;-1.226;2022-08-14T07:50:39;5.30;;;3.10;;
62556;SDS011;48612;50.742;-1.226;2022-08-14T07:53:06;7.28;;;2.78;;
62556;SDS011;48612;50.742;-1.226;2022-08-14T07:55:33;3.50;;;2.70;;
62556;SDS011;48612;50.742;-1.226;2022-08-14T07:58:00;3.22;;;2.70;;
62556;SDS011;48612;50.742;-1.226;2022-08-14T08:00:26;3.92;;;2.90;;
62556;SDS011;48612;50.742;-1.226;2022-08-14T08:02:55;3.53;;;2.78;;
62556;SDS011;48612;50.742;-1.226;2022-08-14T08:05:25;9.20;;;3.20;;
62556;SDS011;48612;50.742;-1.226;2022-08-14T08:07:52;3.65;;;2.70;;
62556;SDS011;48612;50.742;-1.226;2022-08-14T08:10:23;5.57;;;2.53;;
62556;SDS011;48612;50.742;-1.226;2022-08-14T08:12:59;3.85;;;2.67;;
62556;SDS011;48612;50.742;-1.226;2022-08-14T08:15:52;4.90;;;2.95;;
62556;SDS011;48612;50.742;-1.226;2022-08-14T08:18:22;5.43;;;2.75;;
62556;SDS011;48612;50.742;-1.226;2022-08-14T08:20:53;6.00;;;2.63;;
62556;SDS011;48612;50.742;-1.226;2022-08-14T08:23:22;5.95;;;2.72;;
62556;SDS011;48612;50.742;-1.226;2022-08-14T08:25:48;4.40;;;2.90;;
62556;SDS011;48612;50.742;-1.226;2022-08-14T08:28:20;4.32;;;3.00;;
62556;SDS011;48612;50.742;-1.226;2022-08-14T08:31:04;6.72;;;2.97;;
62556;SDS011;48612;50.742;-1.226;2022-08-14T08:33:33;9.10;;;3.08;;
62556;SDS011;48612;50.742;-1.226;2022-08-14T08:36:03;6.97;;;3.10;;
62556;SDS011;48612;50.742;-1.226;2022-08-14T08:38:32;6.00;;;2.90;;
62556;SDS011;48612;50.742;-1.226;2022-08-14T08:41:00;5.50;;;2.58;;
62556;SDS011;48612;50.742;-1.226;2022-08-14T08:43:29;7.75;;;3.13;;
62556;SDS011;48612;50.742;-1.226;2022-08-14T08:46:00;6.13;;;2.90;;
62556;SDS011;48612;50.742;-1.226;2022-08-14T08:48:44;7.43;;;3.17;;
62556;SDS011;48612;50.742;-1.226;2022-08-14T08:51:24;11.48;;;3.10;;
62556;SDS011;48612;50.742;-1.226;2022-08-14T08:54:02;3.60;;;2.90;;
62556;SDS011;48612;50.742;-1.226;2022-08-14T08:59:28;5.07;;;2.90;;
62556;SDS011;48612;50.742;-1.226;2022-08-14T09:01:59;4.95;;;2.67;;
62556;SDS011;48612;50.742;-1.226;2022-08-14T09:04:33;7.97;;;2.80;;
62556;SDS011;48612;50.742;-1.226;2022-08-14T09:07:07;3.85;;;2.80;;
62556;SDS011;48612;50.742;-1.226;2022-08-14T09:09:33;6.38;;;3.08;;
62556;SDS011;48612;50.742;-1.226;2022-08-14T09:12:15;4.57;;;3.10;;
62556;SDS011;48612;50.742;-1.226;2022-08-14T09:14:42;3.95;;;2.60;;
62556;SDS011;48612;50.742;-1.226;2022-08-14T09:17:13;5.40;;;2.92;;
62556;SDS011;48612;50.742;-1.226;2022-08-14T09:19:45;9.90;;;2.80;;
62556;SDS011;48612;50.742;-1.226;2022-08-14T09:22:12;6.82;;;2.75;;
62556;SDS011;48612;50.742;-1.226;2022-08-14T09:24:42;4.32;;;2.45;;
62556;SDS011;48612;50.742;-1.226;2022-08-14T09:27:13;3.08;;;2.28;;
62556;SDS011;48612;50.742;-1.226;2022-08-14T09:29:38;4.03;;;2.47;;
62556;SDS011;48612;50.742;-1.226;2022-08-14T09:32:06;6.75;;;2.70;;
62556;SDS011;48612;50.742;-1.226;2022-08-14T09:37:21;7.28;;;3.33;;
62556;SDS011;48612;50.742;-1.226;2022-08-14T09:40:20;11.35;;;3.20;;
62556;SDS011;48612;50.742;-1.226;2022-08-14T09:45:55;3.10;;;2.60;;
62556;SDS011;48612;50.742;-1.226;2022-08-14T09:48:23;5.70;;;2.90;;
62556;SDS011;48612;50.742;-1.226;2022-08-14T09:50:51;4.95;;;2.63;;
62556;SDS011;48612;50.742;-1.226;2022-08-14T09:53:35;4.60;;;2.80;;
62556;SDS011;48612;50.742;-1.226;2022-08-14T09:56:06;5.93;;;2.70;;
62556;SDS011;48612;50.742;-1.226;2022-08-14T09:58:39;3.35;;;2.60;;
62556;SDS011;48612;50.742;-1.226;2022-08-14T10:01:33;3.25;;;2.30;;
62556;SDS011;48612;50.742;-1.226;2022-08-14T10:04:00;3.60;;;2.60;;
62556;SDS011;48612;50.742;-1.226;2022-08-14T10:06:27;6.68;;;2.63;;
62556;SDS011;48612;50.742;-1.226;2022-08-14T10:08:57;10.43;;;2.50;;
62556;SDS011;48612;50.742;-1.226;2022-08-14T10:11:27;8.90;;;2.60;;
62556;SDS011;48612;50.742;-1.226;2022-08-14T10:14:11;7.75;;;2.80;;
62556;SDS011;48612;50.742;-1.226;2022-08-14T10:16:50;3.72;;;2.40;;
62556;SDS011;48612;50.742;-1.226;2022-08-14T10:19:25;4.55;;;3.00;;
62556;SDS011;48612;50.742;-1.226;2022-08-14T10:24:29;6.00;;;3.25;;
62556;SDS011;48612;50.742;-1.226;2022-08-14T10:27:04;3.72;;;2.72;;
62556;SDS011;48612;50.742;-1.226;2022-08-14T10:29:41;4.57;;;2.70;;
62556;SDS011;48612;50.742;-1.226;2022-08-14T10:32:08;3.90;;;2.13;;
62556;SDS011;48612;50.742;-1.226;2022-08-14T10:34:38;2.90;;;2.38;;
62556;SDS011;48612;50.742;-1.226;2022-08-14T10:37:05;7.15;;;2.75;;
62556;SDS011;48612;50.742;-1.226;2022-08-14T10:39:35;9.75;;;2.72;;
62556;SDS011;48612;50.742;-1.226;2022-08-14T10:42:05;6.70;;;2.60;;
62556;SDS011;48612;50.742;-1.226;2022-08-14T10:44:39;4.38;;;2.60;;
62556;SDS011;48612;50.742;-1.226;2022-08-14T10:47:06;9.65;;;2.92;;
62556;SDS011;48612;50.742;-1.226;2022-08-14T10:49:37;5.93;;;2.75;;
62556;SDS011;48612;50.742;-1.226;2022-08-14T10:52:21;8.02;;;3.28;;
62556;SDS011;48612;50.742;-1.226;2022-08-14T10:54:49;12.80;;;3.30;;
62556;SDS011;48612;50.742;-1.226;2022-08-14T10:57:17;4.88;;;2.90;;
62556;SDS011;48612;50.742;-1.226;2022-08-14T11:02:38;7.53;;;2.65;;
62556;SDS011;48612;50.742;-1.226;2022-08-14T11:07:35;6.40;;;2.72;;
62556;SDS011;48612;50.742;-1.226;2022-08-14T11:10:08;11.77;;;2.72;;
62556;SDS011;48612;50.742;-1.226;2022-08-14T11:15:19;4.53;;;2.17;;
62556;SDS011;48612;50.742;-1.226;2022-08-14T11:17:46;5.45;;;2.67;;
62556;SDS011;48612;50.742;-1.226;2022-08-14T11:20:17;5.05;;;2.40;;
62556;SDS011;48612;50.742;-1.226;2022-08-14T11:22:44;4.18;;;1.98;;
62556;SDS011;48612;50.742;-1.226;2022-08-14T11:25:11;5.00;;;2.40;;
62556;SDS011;48612;50.742;-1.226;2022-08-14T11:27:39;3.50;;;2.05;;
62556;SDS011;48612;50.742;-1.226;2022-08-14T11:30:08;2.65;;;2.03;;
62556;SDS011;48612;50.742;-1.226;2022-08-14T11:32:35;5.82;;;2.28;;
62556;SDS011;48612;50.742;-1.226;2022-08-14T11:35:04;4.20;;;2.00;;
62556;SDS011;48612;50.742;-1.226;2022-08-14T11:37:32;6.25;;;2.40;;
62556;SDS011;48612;50.742;-1.226;2022-08-14T11:40:00;5.65;;;2.22;;
62556;SDS011;48612;50.742;-1.226;2022-08-14T11:42:26;4.97;;;2.10;;
62556;SDS011;48612;50.742;-1.226;2022-08-14T11:44:58;10.30;;;2.35;;
62556;SDS011;48612;50.742;-1.226;2022-08-14T11:47:31;6.65;;;2.30;;
62556;SDS011;48612;50.742;-1.226;2022-08-14T11:49:57;3.42;;;1.98;;
62556;SDS011;48612;50.742;-1.226;2022-08-14T11:52:33;9.77;;;2.63;;
62556;SDS011;48612;50.742;-1.226;2022-08-14T11:55:02;10.43;;;2.30;;
62556;SDS011;48612;50.742;-1.226;2022-08-14T11:57:59;7.40;;;2.67;;
62556;SDS011;48612;50.742;-1.226;2022-08-14T12:00:49;6.53;;;2.10;;
62556;SDS011;48612;50.742;-1.226;2022-08-14T12:03:39;7.95;;;2.15;;
62556;SDS011;48612;50.742;-1.226;2022-08-14T12:09:32;9.35;;;2.35;;
62556;SDS011;48612;50.742;-1.226;2022-08-14T12:12:13;10.57;;;2.45;;
62556;SDS011;48612;50.742;-1.226;2022-08-14T12:14:59;4.15;;;2.20;;
62556;SDS011;48612;50.742;-1.226;2022-08-14T12:17:45;5.57;;;2.05;;
62556;SDS011;48612;50.742;-1.226;2022-08-14T12:20:31;5.40;;;2.30;;
62556;SDS011;48612;50.742;-1.226;2022-08-14T12:23:19;7.75;;;2.30;;
62556;SDS011;48612;50.742;-1.226;2022-08-14T12:26:07;7.03;;;2.55;;
62556;SDS011;48612;50.742;-1.226;2022-08-14T12:29:12;5.28;;;2.22;;
62556;SDS011;48612;50.742;-1.226;2022-08-14T12:31:59;16.42;;;2.78;;
62556;SDS011;48612;50.742;-1.226;2022-08-14T12:34:51;6.80;;;2.75;;
62556;SDS011;48612;50.742;-1.226;2022-08-14T12:37:27;6.28;;;2.25;;
62556;SDS011;48612;50.742;-1.226;2022-08-14T12:40:20;5.82;;;2.67;;
62556;SDS011;48612;50.742;-1.226;2022-08-14T12:43:02;17.35;;;3.25;;
62556;SDS011;48612;50.742;-1.226;2022-08-14T12:48:15;7.38;;;2.70;;
62556;SDS011;48612;50.742;-1.226;2022-08-14T12:50:43;5.38;;;2.65;;
62556;SDS011;48612;50.742;-1.226;2022-08-14T12:53:10;9.57;;;2.72;;
62556;SDS011;48612;50.742;-1.226;2022-08-14T12:55:41;6.03;;;2.50;;
62556;SDS011;48612;50.742;-1.226;2022-08-14T12:58:09;7.55;;;2.70;;
62556;SDS011;48612;50.742;-1.226;2022-08-14T13:00:37;6.95;;;2.78;;
62556;SDS011;48612;50.742;-1.226;2022-08-14T13:03:32;5.00;;;2.50;;
62556;SDS011;48612;50.742;-1.226;2022-08-14T13:06:03;8.60;;;2.83;;
62556;SDS011;48612;50.742;-1.226;2022-08-14T13:08:34;8.60;;;2.30;;
62556;SDS011;48612;50.742;-1.226;2022-08-14T13:11:00;8.55;;;2.80;;
62556;SDS011;48612;50.742;-1.226;2022-08-14T13:13:31;5.20;;;2.50;;
62556;SDS011;48612;50.742;-1.226;2022-08-14T13:16:05;7.70;;;2.40;;
62556;SDS011;48612;50.742;-1.226;2022-08-14T13:18:32;9.25;;;2.47;;
62556;SDS011;48612;50.742;-1.226;2022-08-14T13:21:05;8.43;;;2.70;;
62556;SDS011;48612;50.742;-1.226;2022-08-14T13:23:32;12.65;;;3.47;;
62556;SDS011;48612;50.742;-1.226;2022-08-14T13:25:59;7.72;;;2.60;;
62556;SDS011;48612;50.742;-1.226;2022-08-14T13:28:27;6.93;;;2.58;;
62556;SDS011;48612;50.742;-1.226;2022-08-14T13:30:54;4.70;;;2.90;;
62556;SDS011;48612;50.742;-1.226;2022-08-14T13:33:21;7.85;;;2.90;;
62556;SDS011;48612;50.742;-1.226;2022-08-14T13:35:48;10.60;;;2.78;;
62556;SDS011;48612;50.742;-1.226;2022-08-14T13:38:20;7.43;;;2.92;;
62556;SDS011;48612;50.742;-1.226;2022-08-14T13:40:48;12.77;;;3.63;;
62556;SDS011;48612;50.742;-1.226;2022-08-14T13:43:19;8.75;;;3.05;;
62556;SDS011;48612;50.742;-1.226;2022-08-14T13:45:46;8.02;;;3.33;;
62556;SDS011;48612;50.742;-1.226;2022-08-14T13:48:17;7.25;;;3.38;;
62556;SDS011;48612;50.742;-1.226;2022-08-14T13:50:46;7.80;;;3.15;;
62556;SDS011;48612;50.742;-1.226;2022-08-14T13:53:15;19.60;;;4.70;;
62556;SDS011;48612;50.742;-1.226;2022-08-14T13:55:44;13.40;;;3.30;;
62556;SDS011;48612;50.742;-1.226;2022-08-14T13:58:11;10.73;;;3.40;;
62556;SDS011;48612;50.742;-1.226;2022-08-14T14:00:41;7.32;;;2.50;;
62556;SDS011;48612;50.742;-1.226;2022-08-14T14:03:19;18.10;;;3.30;;
62556;SDS011;48612;50.742;-1.226;2022-08-14T14:06:08;10.48;;;3.80;;
62556;SDS011;48612;50.742;-1.226;2022-08-14T14:08:35;14.00;;;3.30;;
62556;SDS011;48612;50.742;-1.226;2022-08-14T14:11:11;9.18;;;2.63;;
62556;SDS011;48612;50.742;-1.226;2022-08-14T14:13:40;7.50;;;2.83;;
62556;SDS011;48612;50.742;-1.226;2022-08-14T14:16:09;5.60;;;2.88;;
62556;SDS011;48612;50.742;-1.226;2022-08-14T14:18:35;8.50;;;2.85;;
62556;SDS011;48612;50.742;-1.226;2022-08-14T14:21:05;6.47;;;3.25;;
62556;SDS011;48612;50.742;-1.226;2022-08-14T14:23:34;7.15;;;2.60;;
62556;SDS011;48612;50.742;-1.226;2022-08-14T14:26:23;5.78;;;2.60;;
62556;SDS011;48612;50.742;-1.226;2022-08-14T14:29:19;7.03;;;2.45;;
62556;SDS011;48612;50.742;-1.226;2022-08-14T14:32:15;7.50;;;2.47;;
62556;SDS011;48612;50.742;-1.226;2022-08-14T14:35:08;3.45;;;2.17;;
62556;SDS011;48612;50.742;-1.226;2022-08-14T14:37:52;9.98;;;3.15;;
62556;SDS011;48612;50.742;-1.226;2022-08-14T14:40:20;13.18;;;3.95;;
62556;SDS011;48612;50.742;-1.226;2022-08-14T14:42:48;9.00;;;3.60;;
62556;SDS011;48612;50.742;-1.226;2022-08-14T14:45:19;9.48;;;3.45;;
62556;SDS011;48612;50.742;-1.226;2022-08-14T14:48:02;18.92;;;4.03;;
62556;SDS011;48612;50.742;-1.226;2022-08-14T14:50:37;13.60;;;4.45;;
62556;SDS011;48612;50.742;-1.226;2022-08-14T14:53:18;17.48;;;3.60;;
62556;SDS011;48612;50.742;-1.226;2022-08-14T14:56:14;13.77;;;3.80;;
62556;SDS011;48612;50.742;-1.226;2022-08-14T14:58:44;19.38;;;4.63;;
62556;SDS011;48612;50.742;-1.226;2022-08-14T15:01:12;9.77;;;3.30;;
62556;SDS011;48612;50.742;-1.226;2022-08-14T15:03:41;19.02;;;3.90;;
62556;SDS011;48612;50.742;-1.226;2022-08-14T15:06:08;16.27;;;4.05;;
62556;SDS011;48612;50.742;-1.226;2022-08-14T15:08:41;10.00;;;3.20;;
62556;SDS011;48612;50.742;-1.226;2022-08-14T15:11:27;8.63;;;3.35;;
62556;SDS011;48612;50.742;-1.226;2022-08-14T15:13:57;9.43;;;3.05;;
62556;SDS011;48612;50.742;-1.226;2022-08-14T15:16:26;10.55;;;2.65;;
62556;SDS011;48612;50.742;-1.226;2022-08-14T15:19:11;7.00;;;2.58;;
62556;SDS011;48612;50.742;-1.226;2022-08-14T15:21:38;9.63;;;2.88;;
62556;SDS011;48612;50.742;-1.226;2022-08-14T15:24:22;7.70;;;3.03;;
62556;SDS011;48612;50.742;-1.226;2022-08-14T15:26:47;7.55;;;2.28;;